Map

Track Data

SID SEASON NUMBER BASIN SUBBASIN NAME ISO_TIME NATURE LAT LON WMO_WIND WMO_PRES WMO_AGENCY TRACK_TYPE DIST2LAND LANDFALL IFLAG USA_AGENCY USA_ATCF_ID USA_LAT USA_LON USA_RECORD USA_STATUS USA_WIND USA_PRES USA_SSHS USA_R34_NE USA_R34_SE USA_R34_SW USA_R34_NW USA_R50_NE USA_R50_SE USA_R50_SW USA_R50_NW USA_R64_NE USA_R64_SE USA_R64_SW USA_R64_NW USA_POCI USA_ROCI USA_RMW USA_EYE TOKYO_LAT TOKYO_LON TOKYO_GRADE TOKYO_WIND TOKYO_PRES TOKYO_R50_DIR TOKYO_R50_LONG TOKYO_R50_SHORT TOKYO_R30_DIR TOKYO_R30_LONG TOKYO_R30_SHORT TOKYO_LAND CMA_LAT CMA_LON CMA_CAT CMA_WIND CMA_PRES HKO_LAT HKO_LON HKO_CAT HKO_WIND HKO_PRES NEWDELHI_LAT NEWDELHI_LON NEWDELHI_GRADE NEWDELHI_WIND NEWDELHI_PRES NEWDELHI_CI NEWDELHI_DP NEWDELHI_POCI REUNION_LAT REUNION_LON REUNION_TYPE REUNION_WIND REUNION_PRES REUNION_TNUM REUNION_CI REUNION_RMW REUNION_R34_NE REUNION_R34_SE REUNION_R34_SW REUNION_R34_NW REUNION_R50_NE REUNION_R50_SE REUNION_R50_SW REUNION_R50_NW REUNION_R64_NE REUNION_R64_SE REUNION_R64_SW REUNION_R64_NW BOM_LAT BOM_LON BOM_TYPE BOM_WIND BOM_PRES BOM_TNUM BOM_CI BOM_RMW BOM_R34_NE BOM_R34_SE BOM_R34_SW BOM_R34_NW BOM_R50_NE BOM_R50_SE BOM_R50_SW BOM_R50_NW BOM_R64_NE BOM_R64_SE BOM_R64_SW BOM_R64_NW BOM_ROCI BOM_POCI BOM_EYE BOM_POS_METHOD BOM_PRES_METHOD NADI_LAT NADI_LON NADI_CAT NADI_WIND NADI_PRES WELLINGTON_LAT WELLINGTON_LON WELLINGTON_WIND WELLINGTON_PRES DS824_LAT DS824_LON DS824_STAGE DS824_WIND DS824_PRES TD9636_LAT TD9636_LON TD9636_STAGE TD9636_WIND TD9636_PRES TD9635_LAT TD9635_LON TD9635_WIND TD9635_PRES TD9635_ROCI NEUMANN_LAT NEUMANN_LON NEUMANN_CLASS NEUMANN_WIND NEUMANN_PRES MLC_LAT MLC_LON MLC_CLASS MLC_WIND MLC_PRES USA_GUST BOM_GUST BOM_GUST_PER REUNION_GUST REUNION_GUST_PER USA_SEAHGT USA_SEARAD_NE USA_SEARAD_SE USA_SEARAD_SW USA_SEARAD_NW STORM_SPEED STORM_DIR
1963232N14118 1963 72 WP MM NOT_NAMED 1963-08-20 00:00:00 TS 14.0000 117.500 main 294 294 __O___________ -1 14.0000 117.500 0 1008 11 269
1963232N14118 1963 72 WP MM NOT_NAMED 1963-08-20 03:00:00 TS 13.9904 116.928 main 356 356 __P___________ -1 13.9904 116.928 0 1006 11 270
1963232N14118 1963 72 WP MM NOT_NAMED 1963-08-20 06:00:00 TS 14.0000 116.400 main 407 407 __O___________ -1 14.0000 116.400 0 1005 10 274
1963232N14118 1963 72 WP MM NOT_NAMED 1963-08-20 09:00:00 TS 14.0546 115.930 main 454 454 __P___________ -1 14.0546 115.930 0 1004 10 282
1963232N14118 1963 72 WP MM NOT_NAMED 1963-08-20 12:00:00 TS 14.2000 115.400 main 502 502 __O___________ -1 14.2000 115.400 0 1004 13 290
1963232N14118 1963 72 WP MM NOT_NAMED 1963-08-20 15:00:00 TS 14.4928 114.658 main 562 505 __P___________ -1 14.4928 114.658 0 1004 16 292
1963232N14118 1963 72 WP MM NOT_NAMED 1963-08-20 18:00:00 TS 14.8000 113.900 main 505 448 __O___________ -1 14.8000 113.900 0 1004 14 290
1963232N14118 1963 72 WP MM NOT_NAMED 1963-08-20 21:00:00 TS 14.9648 113.290 main 448 400 __P___________ -1 14.9648 113.290 0 1003 11 286
1963232N14118 1963 72 WP MM NOT_NAMED 1963-08-21 00:00:00 TS 15.1000 112.800 main 400 360 __O___________ -1 15.1000 112.800 0 1003 9 292
1963232N14118 1963 72 WP MM NOT_NAMED 1963-08-21 03:00:00 TS 15.2998 112.420 main 360 334 __P___________ -1 15.2998 112.420 0 1002 8 301
1963232N14118 1963 72 WP MM NOT_NAMED 1963-08-21 06:00:00 TS 15.5000 112.100 main 334 300 __O___________ -1 15.5000 112.100 0 1002 8 298
1963232N14118 1963 72 WP MM NOT_NAMED 1963-08-21 09:00:00 TS 15.6575 111.727 main 300 280 __P___________ -1 15.6575 111.727 0 1002 7 284
1963232N14118 1963 72 WP MM NOT_NAMED 1963-08-21 12:00:00 TS 15.6600 111.440 main 271 255 __OO__________ -1 15.8000 111.400 0 1002 15.1000 111.600 TD 25 1002 6 287
1963232N14118 1963 72 WP MM NOT_NAMED 1963-08-21 15:00:00 TS 15.8284 111.149 main 245 232 __PP__________ -1 15.9499 111.177 0 1001 15.5854 111.093 TD 25 1002 7 306
1963232N14118 1963 72 WP MM NOT_NAMED 1963-08-21 18:00:00 TS 16.0571 110.871 main 236 222 __OO__________ -1 16.1000 111.000 1 23 1000 16.0000 110.700 TD 25 1002 7 313
1963232N14118 1963 72 WP MM NOT_NAMED 1963-08-21 21:00:00 TS 16.2762 110.645 main 219 217 __PP__________ -1 16.2575 110.793 1 23 1001 16.2948 110.497 TD 25 1002 5 318
1963232N14118 1963 72 WP MM NOT_NAMED 1963-08-22 00:00:00 TS 16.4500 110.500 main 208 193 __OO__________ -1 16.4000 110.600 1 23 1002 16.5000 110.400 TD 25 1002 4 317
1963232N14118 1963 72 WP MM NOT_NAMED 1963-08-22 03:00:00 TS 16.5750 110.360 main 193 179 __PP__________ -1 16.4850 110.427 1 23 1002 16.6650 110.292 TD 25 1002 3 316
1963232N14118 1963 72 WP MM NOT_NAMED 1963-08-22 06:00:00 TS 16.7000 110.250 main 179 154 __OO__________ -1 16.6000 110.300 1 23 1002 16.8000 110.200 TD 25 1002 4 327
1963232N14118 1963 72 WP MM NOT_NAMED 1963-08-22 09:00:00 TS 16.8700 110.164 main 154 130 __PP__________ -1 16.8125 110.228 1 23 1002 16.9275 110.100 TD 25 1002 4 341
1963232N14118 1963 72 WP MM NOT_NAMED 1963-08-22 12:00:00 TS 17.1000 110.100 main 130 99 __OO__________ -1 17.1000 110.200 1 23 1002 17.1000 110.000 TD 25 1002 5 349
1963232N14118 1963 72 WP MM NOT_NAMED 1963-08-22 15:00:00 TS 17.3800 110.061 main 99 64 __PP__________ -1 17.4050 110.222 1 26 1001 17.3550 109.900 TD 27 1002 7 351
1963232N14118 1963 72 WP MM NOT_NAMED 1963-08-22 18:00:00 TS 17.7500 110.000 main 54 21 __OO__________ -1 17.8000 110.200 1 29 1000 17.7000 109.800 TD 30 1002 9 350
1963232N14118 1963 72 WP MM NOT_NAMED 1963-08-22 21:00:00 TS 18.2198 109.913 main 21 0 __PP__________ -1 18.3197 110.097 1 26 1000 18.1199 109.730 TD 27 1002 10 344
1963232N14118 1963 72 WP MM NOT_NAMED 1963-08-23 00:00:00 TS 18.7500 109.700 main 0 0 __OO__________ -1 18.9000 109.800 1 23 1001 18.6000 109.600 TD 25 1002 12 331
1963232N14118 1963 72 WP MM NOT_NAMED 1963-08-23 03:00:00 TS 19.2938 109.297 main 0 0 __PP__________ -1 19.4951 109.233 1 23 1001 19.0924 109.360 TD 25 1002 14 320
1963232N14118 1963 72 WP MM NOT_NAMED 1963-08-23 06:00:00 TS 19.8000 108.750 main 35 35 __OO__________ -1 20.0000 108.500 1 23 1001 19.6000 109.000 TD 25 1002 14 311
1963232N14118 1963 72 WP MM NOT_NAMED 1963-08-23 09:00:00 TS 20.2199 108.155 main 103 54 __PP__________ -1 20.2946 107.779 1 23 1001 20.1451 108.530 TD 25 1003 14 303
1963232N14118 1963 72 WP MM NOT_NAMED 1963-08-23 12:00:00 TS 20.5500 107.500 main 45 0 __OO__________ -1 20.5000 107.000 1 23 1001 20.6000 108.000 TD 25 1004 14 295
1963232N14118 1963 72 WP MM NOT_NAMED 1963-08-23 15:00:00 TS 20.8051 106.810 main 0 0 __PP__________ -1 20.7502 106.135 1 20 1002 20.8600 107.485 TD 25 1004 13 290
1963232N14118 1963 72 WP MM NOT_NAMED 1963-08-23 18:00:00 TS 21.0000 106.150 main 0 0 __OO__________ -1 21.0000 105.300 0 17 1004 21.0000 107.000 TD 25 1004 12 288
1963232N14118 1963 72 WP MM NOT_NAMED 1963-08-23 21:00:00 TS 21.1776 105.593 main 0 0 __PP__________ -1 21.2500 104.605 0 17 1004 21.1051 106.580 TD 25 1004 10 290
1963232N14118 1963 72 WP MM NOT_NAMED 1963-08-24 00:00:00 TS 21.3500 105.100 main 0 __OO__________ -1 21.5000 104.000 0 17 1004 21.2000 106.200 TD 25 1004 10 291

Digital Typhoon Data and Search

About IBTrACS Database

This database is a web-friendly format of International Best Track Archive for Climate Stewardship (IBTrACS), a global best track data archive curated by NOAA dating back to 1842.

Updated: 2021-10-25